Time;durP1;ratioP1;P1;durP2;ratioP2;P2;SDS_P1;SDS_P2;PMS_P1;PMS_P2;Temp;Humidity;BMP_temperature;BMP_pressure;BME280_temperature;BME280_humidity;BME280_pressure;Samples;Min_cycle;Max_cycle;Signal;HPM_P1;HPM_P2
2022/12/17 13:06:13;;;;;;;25.70;10.50;;;-0.80;99.90;;;;;;4937459;29;20236;-70
2022/12/17 13:08:41;;;;;;;34.27;13.03;;;-0.70;99.90;;;;;;4937737;29;20290;-72
2022/12/17 13:11:27;;;;;;;27.73;12.57;;;-0.70;99.90;;;;;;4937416;29;20240;-70
2022/12/17 13:13:59;;;;;;;29.50;12.17;;;-0.70;99.90;;;;;;4938143;29;20678;-70
2022/12/17 13:16:37;;;;;;;33.30;13.03;;;-0.70;99.90;;;;;;4937684;29;20213;-70
2022/12/17 13:19:17;;;;;;;29.87;13.00;;;-0.70;99.90;;;;;;4937767;29;20239;-70
2022/12/17 13:21:44;;;;;;;25.40;11.80;;;-0.70;99.90;;;;;;4938159;29;20219;-70
2022/12/17 13:24:22;;;;;;;26.60;11.33;;;-0.70;99.90;;;;;;4937936;29;20735;-70
2022/12/17 13:26:49;;;;;;;23.80;10.40;;;-0.70;99.90;;;;;;4937907;29;20208;-70
2022/12/17 13:29:27;;;;;;;27.33;11.17;;;-0.60;99.90;;;;;;4937812;29;20364;-70
2022/12/17 13:32:04;;;;;;;26.57;12.23;;;-0.60;99.90;;;;;;4937909;29;20212;-71
2022/12/17 13:34:44;;;;;;;29.50;11.00;;;-0.60;99.90;;;;;;4937651;29;20687;-70
2022/12/17 13:37:19;;;;;;;20.83;10.87;;;-0.60;99.90;;;;;;4937133;29;20205;-71
2022/12/17 13:39:52;;;;;;;33.43;11.07;;;-0.50;99.90;;;;;;4937848;29;20214;-71
2022/12/17 13:42:26;;;;;;;25.93;10.77;;;-0.60;99.90;;;;;;4937715;29;20213;-72
2022/12/17 13:44:54;;;;;;;23.63;10.07;;;-0.50;99.90;;;;;;4937957;29;20208;-72
2022/12/17 13:47:23;;;;;;;29.83;11.77;;;-0.60;99.90;;;;;;4937457;29;20208;-72
2022/12/17 13:49:51;;;;;;;28.43;11.93;;;-0.50;99.90;;;;;;4937512;29;20205;-72
2022/12/17 13:52:20;;;;;;;25.97;10.93;;;-0.30;99.90;;;;;;4937299;29;20297;-71
2022/12/17 13:54:48;;;;;;;29.83;12.07;;;-0.30;99.90;;;;;;4937451;29;20221;-72
2022/12/17 13:57:17;;;;;;;22.77;10.40;;;-0.20;99.90;;;;;;4937314;29;20582;-72
2022/12/17 13:59:50;;;;;;;26.60;12.50;;;-0.20;99.90;;;;;;4937809;29;20209;-72
2022/12/17 14:02:26;;;;;;;20.40;11.00;;;-0.10;99.90;;;;;;4937684;29;20208;-72
2022/12/17 14:04:54;;;;;;;27.13;11.33;;;-0.10;99.90;;;;;;4937164;29;20575;-70
2022/12/17 14:07:21;;;;;;;25.70;11.87;;;-0.10;99.90;;;;;;4936948;29;20204;-72
2022/12/17 14:09:50;;;;;;;30.60;11.67;;;-0.10;99.90;;;;;;4936979;29;20212;-72
2022/12/17 14:12:20;;;;;;;24.20;10.80;;;0.00;99.90;;;;;;4936941;29;20205;-72
2022/12/17 14:14:50;;;;;;;24.60;11.17;;;0.10;99.90;;;;;;4937079;29;20209;-72
2022/12/17 14:17:19;;;;;;;22.27;10.90;;;0.20;99.90;;;;;;4937148;29;20209;-71
2022/12/17 14:19:46;;;;;;;31.00;11.83;;;0.10;99.90;;;;;;4936952;29;20668;-71
2022/12/17 14:22:19;;;;;;;25.27;10.53;;;0.00;99.90;;;;;;4936945;29;20216;-72
2022/12/17 14:24:46;;;;;;;22.10;10.17;;;-0.10;99.90;;;;;;4936898;29;20213;-70
2022/12/17 14:27:26;;;;;;;29.27;10.90;;;0.00;99.90;;;;;;4936338;29;20208;-71
2022/12/17 14:29:52;;;;;;;31.63;12.40;;;0.00;99.90;;;;;;4936659;29;20212;-72
2022/12/17 14:32:26;;;;;;;33.93;13.07;;;-0.20;99.90;;;;;;4937184;29;20208;-73
2022/12/17 14:34:52;;;;;;;26.37;11.57;;;-0.30;99.90;;;;;;4936673;29;20762;-71
2022/12/17 14:37:23;;;;;;;21.53;10.70;;;-0.40;99.90;;;;;;4936474;29;20303;-71
2022/12/17 14:39:50;;;;;;;29.03;11.17;;;-0.30;99.90;;;;;;4936567;29;20664;-70
2022/12/17 14:42:28;;;;;;;29.90;12.20;;;-0.30;99.90;;;;;;4936667;29;20572;-70
2022/12/17 14:44:58;;;;;;;26.70;11.70;;;-0.30;99.90;;;;;;4936476;29;20209;-70
2022/12/17 14:47:28;;;;;;;28.53;11.73;;;-0.40;99.90;;;;;;4936562;29;20229;-71
2022/12/17 14:49:59;;;;;;;29.57;11.53;;;-0.50;99.90;;;;;;4936373;29;20209;-71
2022/12/17 14:52:43;;;;;;;25.83;10.60;;;-0.60;99.90;;;;;;4936459;29;20212;-71
2022/12/17 14:55:28;;;;;;;22.73;10.37;;;-0.70;99.90;;;;;;4936160;29;20234;-71
2022/12/17 14:58:15;;;;;;;25.73;10.53;;;-0.80;99.90;;;;;;4936850;29;20228;-71
2022/12/17 15:00:46;;;;;;;31.00;11.93;;;-0.90;99.90;;;;;;4936388;29;20208;-71
2022/12/17 15:03:18;;;;;;;30.70;12.40;;;-0.90;99.90;;;;;;4936222;29;20219;-69
2022/12/17 15:05:47;;;;;;;25.47;11.60;;;-0.90;99.90;;;;;;4936407;29;20219;-72
2022/12/17 15:08:14;;;;;;;38.00;14.30;;;-0.90;99.90;;;;;;4936056;29;20233;-71
2022/12/17 15:10:41;;;;;;;32.77;12.80;;;-1.00;99.90;;;;;;4935281;29;20618;-70
2022/12/17 15:13:08;;;;;;;27.73;11.67;;;-0.90;99.90;;;;;;4936440;29;20209;-70
2022/12/17 15:15:35;;;;;;;24.60;11.00;;;-0.90;99.90;;;;;;4935998;29;20679;-71
2022/12/17 15:18:03;;;;;;;26.17;11.47;;;-1.00;99.90;;;;;;4935907;29;20231;-70
2022/12/17 15:20:30;;;;;;;26.27;12.10;;;-1.00;99.90;;;;;;4935886;29;20209;-71
2022/12/17 15:22:57;;;;;;;36.90;12.43;;;-1.10;99.90;;;;;;4935704;29;20239;-71
2022/12/17 15:25:23;;;;;;;25.83;11.87;;;-1.10;99.90;;;;;;4935799;29;20204;-71
2022/12/17 15:27:50;;;;;;;26.40;11.70;;;-1.10;99.90;;;;;;4935943;29;20231;-70
2022/12/17 15:30:19;;;;;;;36.60;13.07;;;-1.10;99.90;;;;;;4936022;29;20268;-70
2022/12/17 15:32:46;;;;;;;22.57;9.97;;;-1.10;99.90;;;;;;4936024;29;20287;-72
2022/12/17 15:35:14;;;;;;;28.73;12.17;;;-1.00;99.90;;;;;;4935936;29;20219;-71
2022/12/17 15:37:41;;;;;;;27.07;12.80;;;-1.10;99.90;;;;;;4935640;29;20280;-71
2022/12/17 15:40:10;;;;;;;36.23;13.37;;;-1.30;99.90;;;;;;4936039;29;20667;-71
2022/12/17 15:45:22;;;;;;;31.17;12.83;;;-1.20;99.90;;;;;;4936028;29;20735;-71
2022/12/17 15:47:49;;;;;;;27.07;12.30;;;-1.30;99.90;;;;;;4935631;29;20247;-71
2022/12/17 15:50:17;;;;;;;28.63;12.10;;;-1.50;99.90;;;;;;4935218;29;20220;-71
2022/12/17 15:52:44;;;;;;;32.20;13.57;;;-1.50;99.90;;;;;;4935793;29;20615;-72
2022/12/17 15:55:12;;;;;;;29.43;11.73;;;-1.50;99.90;;;;;;4935522;29;20208;-72
2022/12/17 15:57:39;;;;;;;30.07;12.80;;;-1.60;99.90;;;;;;4935604;29;20588;-71
2022/12/17 16:00:07;;;;;;;31.87;12.40;;;-1.50;99.90;;;;;;4935550;29;20213;-71
2022/12/17 16:02:35;;;;;;;27.30;11.83;;;-1.40;99.90;;;;;;4935461;29;20209;-71
2022/12/17 16:05:02;;;;;;;34.53;12.63;;;-1.60;99.90;;;;;;4935503;29;20211;-71
2022/12/17 16:07:30;;;;;;;33.17;12.30;;;-1.60;99.90;;;;;;4935502;29;20224;-71
2022/12/17 16:09:57;;;;;;;31.37;11.33;;;-1.70;99.90;;;;;;4935489;29;20212;-71
2022/12/17 16:12:24;;;;;;;28.30;11.80;;;-1.70;99.90;;;;;;4935296;29;20729;-71
2022/12/17 16:14:50;;;;;;;29.83;11.60;;;-1.70;99.90;;;;;;4935594;29;20216;-71
2022/12/17 16:17:17;;;;;;;21.13;10.43;;;-1.60;99.90;;;;;;4935308;29;20305;-71
2022/12/17 16:19:44;;;;;;;28.13;11.83;;;-1.60;99.90;;;;;;4935234;29;20220;-71
2022/12/17 16:22:11;;;;;;;24.73;11.23;;;-1.60;99.90;;;;;;4937967;29;20208;-72
2022/12/17 16:24:39;;;;;;;25.87;9.50;;;-1.90;99.90;;;;;;4939160;29;20208;-72
2022/12/17 16:27:07;;;;;;;26.37;12.73;;;-2.20;99.90;;;;;;4930171;29;20213;-70
2022/12/17 16:29:33;;;;;;;33.67;12.37;;;-2.20;99.90;;;;;;4925806;29;20215;-70
2022/12/17 16:32:00;;;;;;;25.47;11.47;;;-2.20;99.90;;;;;;4926380;29;20229;-71
2022/12/17 16:34:27;;;;;;;27.17;11.67;;;-2.30;99.90;;;;;;4931997;29;20217;-72
2022/12/17 16:36:54;;;;;;;30.40;11.33;;;-2.30;99.90;;;;;;4930871;29;20524;-71
2022/12/17 16:39:21;;;;;;;25.60;11.23;;;-2.40;99.90;;;;;;4929904;29;20247;-72
2022/12/17 16:41:49;;;;;;;27.10;11.33;;;-2.30;99.90;;;;;;4933826;29;20220;-72
2022/12/17 16:44:16;;;;;;;23.20;11.03;;;-2.30;99.90;;;;;;4933693;29;20212;-71
2022/12/17 16:46:45;;;;;;;32.37;10.97;;;-2.10;99.90;;;;;;4928293;29;20212;-73
2022/12/17 16:49:14;;;;;;;25.63;10.17;;;-2.00;99.90;;;;;;4935326;29;20235;-72
2022/12/17 16:51:41;;;;;;;30.90;12.60;;;-1.90;99.90;;;;;;4930791;29;20299;-72
2022/12/17 16:54:13;;;;;;;39.77;11.37;;;-2.00;99.90;;;;;;4930009;29;20656;-72
2022/12/17 16:56:40;;;;;;;29.87;12.03;;;-2.00;99.90;;;;;;4927262;29;20212;-71
2022/12/17 16:59:10;;;;;;;26.40;11.80;;;-1.90;99.90;;;;;;4933673;29;20233;-71
2022/12/17 17:01:38;;;;;;;29.77;11.13;;;-1.90;99.90;;;;;;4930057;29;20227;-70
2022/12/17 17:04:06;;;;;;;31.23;13.37;;;-2.10;99.90;;;;;;4928522;29;20661;-71
2022/12/17 17:06:33;;;;;;;24.77;11.27;;;-2.20;99.90;;;;;;4924862;29;20240;-70
2022/12/17 17:09:03;;;;;;;41.13;13.13;;;-2.10;99.90;;;;;;4925740;29;20230;-71
2022/12/17 17:11:30;;;;;;;32.37;13.23;;;-2.10;99.90;;;;;;4932102;29;20229;-71
2022/12/17 17:13:57;;;;;;;29.07;11.40;;;-2.20;99.90;;;;;;4932322;29;20263;-70
2022/12/17 17:16:25;;;;;;;24.50;10.87;;;-2.30;99.90;;;;;;4924774;29;20210;-70
2022/12/17 17:18:54;;;;;;;31.17;12.07;;;-2.30;99.90;;;;;;4928103;29;20260;-70
2022/12/17 17:21:25;;;;;;;26.23;11.60;;;-2.20;99.90;;;;;;4927950;29;20211;-71
2022/12/17 17:23:53;;;;;;;30.90;12.43;;;-2.30;99.90;;;;;;4928695;29;20669;-70
2022/12/17 17:26:21;;;;;;;29.43;10.80;;;-2.30;99.90;;;;;;4930190;29;20209;-71
2022/12/17 17:28:48;;;;;;;29.10;11.90;;;-2.30;99.90;;;;;;4924523;29;20726;-70
2022/12/17 17:31:16;;;;;;;28.10;14.00;;;-2.30;99.90;;;;;;4927971;29;20234;-72
2022/12/17 17:33:47;;;;;;;25.80;11.17;;;-2.20;99.90;;;;;;4931511;29;20839;-72
2022/12/17 17:36:16;;;;;;;31.23;12.53;;;-2.00;99.90;;;;;;4935803;29;20247;-72
2022/12/17 17:38:42;;;;;;;27.10;11.13;;;-1.90;99.90;;;;;;4937386;29;20229;-72
2022/12/17 17:41:11;;;;;;;33.57;11.30;;;-1.90;99.90;;;;;;4938006;29;20209;-72
2022/12/17 17:43:39;;;;;;;28.67;11.93;;;-1.70;99.90;;;;;;4937857;29;20284;-72
2022/12/17 17:46:06;;;;;;;24.30;11.17;;;-1.70;99.90;;;;;;4937728;29;20215;-71
2022/12/17 17:48:33;;;;;;;27.30;12.23;;;-1.70;99.90;;;;;;4937496;29;20236;-72
2022/12/17 17:51:04;;;;;;;31.67;12.03;;;-1.60;99.90;;;;;;4937373;29;20244;-72
2022/12/17 17:53:31;;;;;;;23.97;11.97;;;-1.60;99.90;;;;;;4937324;29;20209;-73
2022/12/17 17:56:03;;;;;;;25.83;12.20;;;-1.60;99.90;;;;;;4937758;29;20296;-72
2022/12/17 17:58:30;;;;;;;28.93;11.40;;;-1.60;99.90;;;;;;4937692;29;20236;-71
2022/12/17 18:00:57;;;;;;;28.80;11.73;;;-1.60;99.90;;;;;;4937462;29;20215;-72
2022/12/17 18:03:24;;;;;;;23.67;11.17;;;-1.50;99.90;;;;;;4937609;29;20216;-72
2022/12/17 18:05:51;;;;;;;31.67;12.43;;;-1.50;99.90;;;;;;4937413;29;20212;-71
2022/12/17 18:08:19;;;;;;;30.23;12.40;;;-1.60;99.90;;;;;;4937161;29;20569;-71
2022/12/17 18:10:55;;;;;;;33.23;12.90;;;-1.50;99.90;;;;;;4937293;29;20212;-71
2022/12/17 18:16:07;;;;;;;36.13;14.50;;;-1.60;99.90;;;;;;4937268;29;20459;-72
2022/12/17 18:18:34;;;;;;;36.90;14.63;;;-1.60;99.90;;;;;;4937155;29;20243;-72
2022/12/17 18:21:05;;;;;;;30.03;13.03;;;-1.60;99.90;;;;;;4937158;29;20264;-72
2022/12/17 18:23:34;;;;;;;25.53;11.83;;;-1.70;99.90;;;;;;4937186;29;20208;-71
2022/12/17 18:26:06;;;;;;;30.03;11.80;;;-1.80;99.90;;;;;;4937280;29;20216;-72
2022/12/17 18:28:33;;;;;;;34.30;15.20;;;-1.90;99.90;;;;;;4936966;29;20228;-72
